Time;durP1;ratioP1;P1;durP2;ratioP2;P2;SDS_P1;SDS_P2;PMS_P1;PMS_P2;Temp;Humidity;BMP_temperature;BMP_pressure;BME280_temperature;BME280_humidity;BME280_pressure;Samples;Min_cycle;Max_cycle;Signal;HPM_P1;HPM_P2
2023/12/20 00:02:20;;;;;;;;;;;;;;;8.68;70.98;101496.28;7350793;19;19927;-68
2023/12/20 00:04:45;;;;;;;;;;;;;;;8.69;71.27;101498.00;7356479;19;19927;-67
2023/12/20 00:07:11;;;;;;;;;;;;;;;8.69;71.27;101504.06;7363907;19;19959;-68
2023/12/20 00:09:36;;;;;;;;;;;;;;;8.69;70.97;101498.88;7358940;19;20354;-67
2023/12/20 00:12:01;;;;;;;;;;;;;;;8.70;71.36;101508.41;7360733;19;20287;-68
2023/12/20 00:14:27;;;;;;;;;;;;;;;8.72;71.28;101511.03;7351399;19;19936;-67
2023/12/20 00:16:52;;;;;;;;;;;;;;;8.72;71.15;101504.09;7361112;19;19938;-67
2023/12/20 00:19:17;;;;;;;;;;;;;;;8.74;71.26;101501.47;7357133;19;19934;-67
2023/12/20 00:21:42;;;;;;;;;;;;;;;8.73;71.15;101492.78;7360566;19;20351;-67
2023/12/20 00:24:08;;;;;;;;;;;;;;;8.75;71.20;101500.59;7357086;19;19919;-67
2023/12/20 00:26:33;;;;;;;;;;;;;;;8.75;71.20;101505.81;7355584;19;19919;-67
2023/12/20 00:28:58;;;;;;;;;;;;;;;8.76;71.55;101497.09;7357354;19;19929;-67
2023/12/20 00:31:23;;;;;;;;;;;;;;;8.77;71.42;101515.34;7355300;19;20605;-68
2023/12/20 00:33:49;;;;;;;;;;;;;;;8.77;71.19;101519.69;7358374;19;19935;-68
2023/12/20 00:36:14;;;;;;;;;;;;;;;8.79;71.32;101515.34;7353891;19;19947;-68
2023/12/20 00:38:39;;;;;;;;;;;;;;;8.79;71.49;101507.53;7360345;19;19923;-67
2023/12/20 00:41:04;;;;;;;;;;;;;;;8.80;71.37;101530.09;7352929;19;19929;-68
2023/12/20 00:43:30;;;;;;;;;;;;;;;8.81;71.42;101534.41;7359187;19;19911;-68
2023/12/20 00:45:55;;;;;;;;;;;;;;;8.82;71.75;101533.59;7358112;19;19921;-68
2023/12/20 00:48:20;;;;;;;;;;;;;;;8.83;71.64;101530.09;7359826;19;20688;-68
2023/12/20 00:50:46;;;;;;;;;;;;;;;8.83;71.83;101528.34;7358562;19;19926;-67
2023/12/20 00:53:11;;;;;;;;;;;;;;;8.86;71.81;101519.66;7360534;19;19922;-67
2023/12/20 00:55:36;;;;;;;;;;;;;;;8.86;71.57;101519.66;7352739;19;21125;-67
2023/12/20 00:58:01;;;;;;;;;;;;;;;8.87;71.67;101524.03;7358516;19;19923;-67
2023/12/20 01:00:27;;;;;;;;;;;;;;;8.88;71.72;101520.53;7359930;19;19918;-68
2023/12/20 01:02:52;;;;;;;;;;;;;;;8.90;71.73;101516.19;7363688;19;19918;-67
2023/12/20 01:05:18;;;;;;;;;;;;;;;8.92;71.79;101492.72;7359405;19;19915;-67
2023/12/20 01:07:43;;;;;;;;;;;;;;;8.94;71.93;101502.28;7362695;19;19922;-67
2023/12/20 01:10:08;;;;;;;;;;;;;;;8.97;72.20;101493.56;7373259;19;19922;-67
2023/12/20 01:12:34;;;;;;;;;;;;;;;8.99;72.18;101510.94;7365274;19;19919;-67
2023/12/20 01:14:59;;;;;;;;;;;;;;;9.01;71.92;101508.31;7369075;19;19931;-67
2023/12/20 01:17:24;;;;;;;;;;;;;;;9.02;72.22;101505.75;7368636;19;19952;-68
2023/12/20 01:19:49;;;;;;;;;;;;;;;9.04;72.40;101503.97;7361587;19;19914;-67
2023/12/20 01:22:15;;;;;;;;;;;;;;;9.06;72.22;101507.44;7366627;19;20260;-67
2023/12/20 01:24:40;;;;;;;;;;;;;;;9.09;72.37;101510.03;7364244;19;20025;-68
2023/12/20 01:27:05;;;;;;;;;;;;;;;9.13;72.38;101512.66;7365074;19;19915;-67
2023/12/20 01:29:30;;;;;;;;;;;;;;;9.17;72.20;101509.13;7366974;19;20754;-67
2023/12/20 01:31:56;;;;;;;;;;;;;;;9.21;72.72;101516.06;7369569;19;19915;-68
2023/12/20 01:34:21;;;;;;;;;;;;;;;9.26;72.58;101511.72;7358001;19;19918;-67
2023/12/20 01:36:46;;;;;;;;;;;;;;;9.30;72.49;101505.63;7361921;19;19918;-67
2023/12/20 01:39:11;;;;;;;;;;;;;;;9.35;72.58;101498.63;7366300;19;19982;-67
2023/12/20 01:41:37;;;;;;;;;;;;;;;9.39;72.46;101500.38;7362941;19;20690;-67
2023/12/20 01:44:02;;;;;;;;;;;;;;;9.42;72.68;101495.13;7359475;19;19975;-66
2023/12/20 01:46:27;;;;;;;;;;;;;;;9.45;72.57;101489.91;7366542;19;19927;-67
2023/12/20 01:48:53;;;;;;;;;;;;;;;9.48;72.18;101500.31;7364691;19;19933;-67
2023/12/20 01:51:19;;;;;;;;;;;;;;;9.51;72.31;101502.03;7361517;19;19921;-68
2023/12/20 01:53:44;;;;;;;;;;;;;;;9.53;72.52;101501.16;7360952;19;19964;-67
2023/12/20 01:56:10;;;;;;;;;;;;;;;9.55;72.68;101502.00;7359016;19;19943;-67
2023/12/20 01:58:38;;;;;;;;;;;;;;;9.59;72.84;101500.25;7364521;19;19944;-68
2023/12/20 02:01:04;;;;;;;;;;;;;;;9.62;72.77;101475.00;7362973;19;19923;-67
2023/12/20 02:03:29;;;;;;;;;;;;;;;9.67;72.88;101500.19;7363424;19;19953;-67
2023/12/20 02:05:54;;;;;;;;;;;;;;;9.68;72.75;101507.13;7356659;19;19918;-68
2023/12/20 02:08:20;;;;;;;;;;;;;;;9.72;72.76;101503.66;7365651;19;19926;-67
2023/12/20 02:10:45;;;;;;;;;;;;;;;9.75;72.50;101498.41;7364992;19;19923;-66
2023/12/20 02:13:10;;;;;;;;;;;;;;;9.77;72.69;101501.88;7362572;19;20006;-68
2023/12/20 02:15:38;;;;;;;;;;;;;;;9.79;72.42;101487.97;7361294;19;19923;-67
2023/12/20 02:18:04;;;;;;;;;;;;;;;9.83;72.48;101488.78;7351347;19;20471;-67
2023/12/20 02:20:30;;;;;;;;;;;;;;;9.85;72.76;101485.31;7363330;19;19923;-67
2023/12/20 02:22:55;;;;;;;;;;;;;;;9.87;72.73;101487.88;7361439;19;19906;-68
2023/12/20 02:25:21;;;;;;;;;;;;;;;9.89;72.43;101483.53;7362768;19;19926;-68
2023/12/20 02:27:47;;;;;;;;;;;;;;;9.91;72.36;101505.25;7360900;19;19951;-68
2023/12/20 02:30:12;;;;;;;;;;;;;;;9.93;72.34;101502.63;7368658;19;20354;-68
2023/12/20 02:32:37;;;;;;;;;;;;;;;9.93;72.76;101502.63;7357446;19;19940;-68
2023/12/20 02:35:03;;;;;;;;;;;;;;;9.95;72.71;101486.09;7355326;19;19918;-68
2023/12/20 02:37:28;;;;;;;;;;;;;;;9.97;72.34;101500.00;7339291;19;19915;-67
2023/12/20 02:39:53;;;;;;;;;;;;;;;9.98;72.50;101488.66;7356341;19;20401;-68
2023/12/20 02:42:18;;;;;;;;;;;;;;;9.99;72.64;101482.59;7370976;19;19935;-68
2023/12/20 02:44:44;;;;;;;;;;;;;;;10.00;72.22;101493.91;7366818;19;19919;-67
2023/12/20 02:47:09;;;;;;;;;;;;;;;10.00;72.27;101499.97;7365332;19;19978;-68
2023/12/20 02:49:34;;;;;;;;;;;;;;;10.02;72.21;101506.03;7362654;19;19918;-68
2023/12/20 02:52:00;;;;;;;;;;;;;;;10.03;72.54;101499.06;7366430;19;19922;-68
2023/12/20 02:54:25;;;;;;;;;;;;;;;10.03;72.45;101486.88;7363023;19;19915;-68
2023/12/20 02:56:50;;;;;;;;;;;;;;;10.02;72.04;101508.66;7365442;19;19935;-68
2023/12/20 02:59:15;;;;;;;;;;;;;;;10.03;72.57;101505.16;7360289;19;20380;-67
2023/12/20 03:01:44;;;;;;;;;;;;;;;10.02;72.56;101495.59;7364411;19;19939;-68
2023/12/20 03:04:10;;;;;;;;;;;;;;;10.03;72.40;101489.50;7362529;19;19923;-68
2023/12/20 03:06:35;;;;;;;;;;;;;;;10.03;72.35;101494.72;7362898;19;19922;-67
2023/12/20 03:09:00;;;;;;;;;;;;;;;10.02;72.00;101485.16;7363821;19;19907;-68
2023/12/20 03:11:28;;;;;;;;;;;;;;;10.02;72.08;101476.47;7364581;19;19996;-67
2023/12/20 03:13:54;;;;;;;;;;;;;;;10.01;72.02;101470.38;7363465;19;19910;-67
2023/12/20 03:16:19;;;;;;;;;;;;;;;10.00;72.47;101479.09;7363150;19;19937;-67
2023/12/20 03:18:44;;;;;;;;;;;;;;;10.00;72.14;101476.50;7366603;19;19929;-68
2023/12/20 03:21:10;;;;;;;;;;;;;;;10.01;72.49;101478.22;7359999;19;20324;-67
2023/12/20 03:23:35;;;;;;;;;;;;;;;10.02;72.30;101474.72;7366625;19;19922;-67
2023/12/20 03:26:00;;;;;;;;;;;;;;;10.02;72.66;101493.00;7361107;19;20592;-67
2023/12/20 03:28:29;;;;;;;;;;;;;;;10.05;72.46;101472.09;7363309;19;19967;-67
2023/12/20 03:30:54;;;;;;;;;;;;;;;10.06;72.39;101492.09;7361881;19;20378;-68
2023/12/20 03:33:20;;;;;;;;;;;;;;;10.08;72.51;101487.72;7363216;19;19987;-67
2023/12/20 03:35:45;;;;;;;;;;;;;;;10.11;72.49;101479.88;7358468;19;20628;-67
2023/12/20 03:38:10;;;;;;;;;;;;;;;10.13;72.68;101479.84;7364186;19;20455;-67
2023/12/20 03:40:36;;;;;;;;;;;;;;;10.17;72.79;101465.03;7365042;19;19914;-68
2023/12/20 03:43:01;;;;;;;;;;;;;;;10.20;73.06;101465.03;7357603;19;19910;-68
2023/12/20 03:45:26;;;;;;;;;;;;;;;10.23;72.87;101473.66;7360282;19;19915;-68
2023/12/20 03:47:56;;;;;;;;;;;;;;;10.27;72.88;101477.16;7365737;19;19923;-67
2023/12/20 03:50:24;;;;;;;;;;;;;;;10.29;72.55;101491.06;7358838;19;20239;-67
2023/12/20 03:52:49;;;;;;;;;;;;;;;10.31;72.59;101482.34;7363892;19;19923;-68
2023/12/20 03:55:16;;;;;;;;;;;;;;;10.33;72.48;101477.97;7364456;19;19915;-68
2023/12/20 03:57:41;;;;;;;;;;;;;;;10.35;72.76;101485.81;7355736;19;19919;-68
2023/12/20 04:00:10;;;;;;;;;;;;;;;10.37;72.86;101468.38;7369985;19;19925;-67
2023/12/20 04:02:39;;;;;;;;;;;;;;;10.37;72.83;101474.44;7355877;19;19922;-67
2023/12/20 04:05:05;;;;;;;;;;;;;;;10.38;72.90;101472.69;7361746;19;20379;-68
2023/12/20 04:07:30;;;;;;;;;;;;;;;10.39;72.49;101482.25;7367569;19;20008;-67
2023/12/20 04:09:55;;;;;;;;;;;;;;;10.41;72.84;101488.34;7362943;19;19918;-68
2023/12/20 04:12:20;;;;;;;;;;;;;;;10.42;72.92;101495.28;7364503;19;19921;-68
2023/12/20 04:14:46;;;;;;;;;;;;;;;10.43;72.60;101504.84;7357922;19;19910;-67
2023/12/20 04:17:11;;;;;;;;;;;;;;;10.43;72.53;101491.81;7361786;19;19934;-67
2023/12/20 04:19:36;;;;;;;;;;;;;;;10.44;72.36;101500.50;7332781;19;19911;-68
2023/12/20 04:22:02;;;;;;;;;;;;;;;10.43;72.67;101489.19;7364116;19;19950;-68
2023/12/20 04:24:27;;;;;;;;;;;;;;;10.43;72.54;101489.19;7360066;19;19931;-68
2023/12/20 04:26:52;;;;;;;;;;;;;;;10.41;72.47;101485.75;7360463;19;20477;-67
2023/12/20 04:29:17;;;;;;;;;;;;;;;10.40;72.29;101497.06;7360354;19;19911;-68
2023/12/20 04:31:43;;;;;;;;;;;;;;;10.40;72.44;101478.78;7361191;19;19930;-67
2023/12/20 04:34:08;;;;;;;;;;;;;;;10.40;72.53;101484.00;7361721;19;19936;-68
2023/12/20 04:36:33;;;;;;;;;;;;;;;10.41;72.98;101470.06;7370488;19;19910;-67
2023/12/20 04:38:59;;;;;;;;;;;;;;;10.43;72.72;101473.53;7366231;19;20529;-67
2023/12/20 04:41:25;;;;;;;;;;;;;;;10.45;72.69;101482.22;7364424;19;20461;-67
2023/12/20 04:43:50;;;;;;;;;;;;;;;10.47;72.88;101472.63;7365322;19;19922;-68
2023/12/20 04:46:15;;;;;;;;;;;;;;;10.48;72.99;101466.50;7376582;19;20372;-67
2023/12/20 04:48:40;;;;;;;;;;;;;;;10.38;72.71;101439.63;7370593;19;20484;-68
2023/12/20 04:51:06;;;;;;;;;;;;;;;10.50;72.60;101464.75;7372324;19;19919;-67
2023/12/20 04:53:31;;;;;;;;;;;;;;;10.51;72.54;101466.50;7366938;19;19927;-67
2023/12/20 04:55:56;;;;;;;;;;;;;;;10.52;72.93;101477.81;7362361;19;20014;-68
2023/12/20 04:58:21;;;;;;;;;;;;;;;10.52;72.86;101472.56;7365930;19;20348;-68
2023/12/20 05:00:47;;;;;;;;;;;;;;;10.53;72.49;101461.25;7368565;19;20379;-67
2023/12/20 05:03:12;;;;;;;;;;;;;;;10.53;72.51;101451.66;7364883;19;19930;-67
2023/12/20 05:05:37;;;;;;;;;;;;;;;10.52;72.99;101457.78;7366632;19;19935;-67
2023/12/20 05:08:03;;;;;;;;;;;;;;;10.53;72.88;101459.50;7362314;19;19915;-68
2023/12/20 05:10:29;;;;;;;;;;;;;;;10.45;72.61;101439.59;7370838;19;19919;-68
2023/12/20 05:12:54;;;;;;;;;;;;;;;10.55;72.60;101447.31;7365025;19;19946;-67
2023/12/20 05:15:19;;;;;;;;;;;;;;;10.57;72.68;101449.88;7366959;19;19926;-67
2023/12/20 05:17:44;;;;;;;;;;;;;;;10.56;72.69;101438.59;7367318;19;19922;-67
2023/12/20 05:20:10;;;;;;;;;;;;;;;10.59;72.71;101437.66;7363810;19;19919;-67
2023/12/20 05:22:35;;;;;;;;;;;;;;;10.59;72.65;101449.00;7368608;19;19922;-67
2023/12/20 05:25:00;;;;;;;;;;;;;;;10.59;72.72;101451.63;7371072;19;20015;-68
2023/12/20 05:27:26;;;;;;;;;;;;;;;10.58;72.40;101447.25;7354143;19;19923;-68
2023/12/20 05:29:51;;;;;;;;;;;;;;;10.57;72.77;101444.66;7369340;19;19951;-68
2023/12/20 05:32:16;;;;;;;;;;;;;;;10.54;72.36;101442.97;7360064;19;19931;-67
2023/12/20 05:34:41;;;;;;;;;;;;;;;10.56;72.80;101453.38;7364294;19;19932;-67
2023/12/20 05:37:07;;;;;;;;;;;;;;;10.53;72.49;101433.38;7366510;19;20676;-67
2023/12/20 05:39:32;;;;;;;;;;;;;;;10.53;72.77;101438.59;7368659;19;20025;-68
2023/12/20 05:41:57;;;;;;;;;;;;;;;10.52;72.90;101441.25;7363936;19;19923;-68
2023/12/20 05:44:23;;;;;;;;;;;;;;;10.53;72.89;101443.81;7368419;19;19923;-68
2023/12/20 05:46:48;;;;;;;;;;;;;;;10.53;72.97;101433.38;7365642;19;19926;-67
2023/12/20 05:49:13;;;;;;;;;;;;;;;10.54;72.67;101424.69;7367028;19;19925;-68
2023/12/20 05:51:39;;;;;;;;;;;;;;;10.54;72.76;101424.69;7369874;19;20543;-67
2023/12/20 05:54:04;;;;;;;;;;;;;;;10.56;73.06;101417.69;7364847;19;19915;-68
2023/12/20 05:56:29;;;;;;;;;;;;;;;10.53;72.71;101391.59;7368687;19;20263;-68
2023/12/20 05:58:54;;;;;;;;;;;;;;;10.60;72.93;101400.25;7361496;19;19945;-67
2023/12/20 06:01:20;;;;;;;;;;;;;;;10.60;72.69;101400.25;7365428;19;19915;-68
2023/12/20 06:03:48;;;;;;;;;;;;;;;10.60;73.19;101388.06;7362228;19;19907;-68
2023/12/20 06:06:13;;;;;;;;;;;;;;;10.62;72.83;101390.63;7362354;19;19927;-66
2023/12/20 06:08:38;;;;;;;;;;;;;;;10.63;73.17;101385.38;7368620;19;19947;-67
2023/12/20 06:11:05;;;;;;;;;;;;;;;10.65;73.13;101390.63;7367645;19;19946;-68
2023/12/20 06:13:30;;;;;;;;;;;;;;;10.65;73.08;101381.03;7367110;19;19919;-68
2023/12/20 06:15:56;;;;;;;;;;;;;;;10.69;73.11;101383.56;7361989;19;19986;-68
2023/12/20 06:18:21;;;;;;;;;;;;;;;10.70;72.87;101399.25;7369426;19;20514;-67
2023/12/20 06:20:47;;;;;;;;;;;;;;;10.72;73.10;101392.25;7366763;19;19943;-68
2023/12/20 06:23:12;;;;;;;;;;;;;;;10.74;73.30;101382.63;7368969;19;19926;-67
2023/12/20 06:25:37;;;;;;;;;;;;;;;10.76;73.08;101385.25;7360293;19;19922;-68
2023/12/20 06:28:03;;;;;;;;;;;;;;;10.78;73.19;101392.16;7372442;19;19918;-68
2023/12/20 06:30:28;;;;;;;;;;;;;;;10.80;72.96;101389.56;7360043;19;19935;-67
2023/12/20 06:32:54;;;;;;;;;;;;;;;10.81;73.31;101392.16;7364275;19;20334;-67
2023/12/20 06:35:19;;;;;;;;;;;;;;;10.80;73.26;101379.97;7366951;19;19926;-68
2023/12/20 06:37:44;;;;;;;;;;;;;;;10.81;73.22;101392.16;7363763;19;19915;-67
2023/12/20 06:40:10;;;;;;;;;;;;;;;10.79;72.81;101393.03;7362237;19;20356;-68
2023/12/20 06:42:35;;;;;;;;;;;;;;;10.79;72.74;101398.25;7366460;19;19923;-68
2023/12/20 06:45:01;;;;;;;;;;;;;;;10.78;73.10;101401.75;7364736;19;20454;-68
2023/12/20 06:47:26;;;;;;;;;;;;;;;10.77;72.88;101410.50;7366114;19;19915;-67
2023/12/20 06:49:51;;;;;;;;;;;;;;;10.76;72.90;101411.38;7363965;19;20600;-68
2023/12/20 06:52:17;;;;;;;;;;;;;;;10.76;72.92;101429.66;7359661;19;19952;-68
2023/12/20 06:54:42;;;;;;;;;;;;;;;10.77;73.37;101413.97;7363232;19;20252;-67
2023/12/20 06:57:07;;;;;;;;;;;;;;;10.79;73.13;101419.16;7361891;19;20314;-68
2023/12/20 06:59:32;;;;;;;;;;;;;;;10.80;73.27;101421.78;7359998;19;19922;-67
2023/12/20 07:01:58;;;;;;;;;;;;;;;10.83;73.74;101413.00;7365108;19;19925;-69
2023/12/20 07:04:23;;;;;;;;;;;;;;;10.85;73.65;101396.44;7363944;19;19987;-67
2023/12/20 07:06:51;;;;;;;;;;;;;;;10.89;73.41;101405.97;7361439;19;19918;-67
2023/12/20 07:09:17;;;;;;;;;;;;;;;10.90;73.61;101402.47;7362446;19;19915;-68
2023/12/20 07:11:42;;;;;;;;;;;;;;;10.93;73.44;101426.84;7367031;19;19927;-67
2023/12/20 07:14:08;;;;;;;;;;;;;;;10.95;73.63;101414.59;7359524;19;19937;-67
2023/12/20 07:16:34;;;;;;;;;;;;;;;10.96;73.44;101426.81;7365047;19;20891;-68
2023/12/20 07:19:00;;;;;;;;;;;;;;;10.97;73.51;101439.84;7363565;19;19938;-68
2023/12/20 07:21:25;;;;;;;;;;;;;;;10.98;73.45;101404.97;7362670;19;19922;-67
2023/12/20 07:23:50;;;;;;;;;;;;;;;11.00;73.61;101397.13;7360500;19;19986;-68
2023/12/20 07:26:16;;;;;;;;;;;;;;;11.00;73.65;101377.09;7365460;19;19919;-67
2023/12/20 07:28:41;;;;;;;;;;;;;;;11.02;73.78;101380.53;7364075;19;19937;-67
2023/12/20 07:31:06;;;;;;;;;;;;;;;11.02;73.72;101391.00;7364441;19;19919;-68
2023/12/20 07:33:31;;;;;;;;;;;;;;;11.01;73.79;101389.28;7362355;19;20040;-67
2023/12/20 07:35:57;;;;;;;;;;;;;;;11.01;73.27;101389.28;7362018;19;19961;-67
2023/12/20 07:38:22;;;;;;;;;;;;;;;11.01;73.74;101384.03;7361088;19;20295;-67
2023/12/20 07:40:47;;;;;;;;;;;;;;;11.03;73.62;101360.50;7360444;19;19945;-67
2023/12/20 07:43:12;;;;;;;;;;;;;;;11.02;73.58;101370.09;7359219;19;19994;-67
2023/12/20 07:45:38;;;;;;;;;;;;;;;11.04;73.79;101363.06;7358822;19;19922;-67
2023/12/20 07:48:03;;;;;;;;;;;;;;;11.06;74.07;101352.63;7367220;19;19925;-68
2023/12/20 07:50:28;;;;;;;;;;;;;;;11.07;74.05;101363.03;7361194;19;19981;-67
2023/12/20 07:52:54;;;;;;;;;;;;;;;11.09;74.09;101371.72;7363906;19;19926;-68
2023/12/20 07:55:19;;;;;;;;;;;;;;;11.12;73.81;101350.78;7358656;19;20783;-68
2023/12/20 07:57:44;;;;;;;;;;;;;;;11.15;73.86;101334.16;7356820;19;19915;-67
2023/12/20 08:00:10;;;;;;;;;;;;;;;11.15;73.67;101340.28;7366274;19;20324;-68
2023/12/20 08:02:35;;;;;;;;;;;;;;;11.16;73.89;101326.31;7366101;19;19915;-67
2023/12/20 08:05:01;;;;;;;;;;;;;;;11.17;73.71;101362.03;7358068;19;19949;-68
2023/12/20 08:07:26;;;;;;;;;;;;;;;11.19;73.80;101367.22;7363379;19;19919;-67
2023/12/20 08:09:51;;;;;;;;;;;;;;;11.19;73.76;101356.75;7356613;19;19939;-67
2023/12/20 08:12:17;;;;;;;;;;;;;;;11.19;73.74;101346.31;7363449;19;20759;-68
2023/12/20 08:14:42;;;;;;;;;;;;;;;11.20;73.98;101357.63;7355475;19;20612;-67
2023/12/20 08:17:07;;;;;;;;;;;;;;;11.17;73.66;101351.56;7358421;19;19926;-68
2023/12/20 08:19:33;;;;;;;;;;;;;;;11.18;74.09;101331.53;7362633;19;19947;-67
2023/12/20 08:21:58;;;;;;;;;;;;;;;11.18;74.00;101321.91;7359142;19;19929;-68
2023/12/20 08:24:23;;;;;;;;;;;;;;;11.18;74.16;101314.09;7345010;19;19914;-68
2023/12/20 08:26:48;;;;;;;;;;;;;;;11.18;73.80;101319.31;7359758;19;19931;-68
2023/12/20 08:29:14;;;;;;;;;;;;;;;11.20;74.04;101329.72;7363875;19;19929;-67
2023/12/20 08:31:39;;;;;;;;;;;;;;;11.20;73.87;101305.34;7359071;19;20174;-68
2023/12/20 08:34:05;;;;;;;;;;;;;;;11.20;74.01;101302.72;7358100;19;20217;-68
2023/12/20 08:36:30;;;;;;;;;;;;;;;11.20;74.23;101290.53;7361288;19;19915;-67
2023/12/20 08:38:55;;;;;;;;;;;;;;;11.21;74.35;101328.88;7355067;19;20006;-68
2023/12/20 08:41:20;;;;;;;;;;;;;;;11.21;74.01;101349.78;7354343;19;19935;-68
2023/12/20 08:43:46;;;;;;;;;;;;;;;11.22;74.26;101327.13;7359338;19;19923;-66
2023/12/20 08:46:11;;;;;;;;;;;;;;;11.23;74.02;101332.31;7362022;19;19915;-68
2023/12/20 08:48:37;;;;;;;;;;;;;;;11.25;74.36;101332.28;7362165;19;20745;-67
2023/12/20 08:51:02;;;;;;;;;;;;;;;11.26;74.15;101320.97;7356849;19;19926;-67
2023/12/20 08:53:28;;;;;;;;;;;;;;;11.28;74.58;101324.41;7360193;19;20016;-67
2023/12/20 08:55:53;;;;;;;;;;;;;;;11.29;74.58;101331.34;7354984;19;19931;-68
2023/12/20 08:58:18;;;;;;;;;;;;;;;11.30;74.54;101306.94;7359894;19;19938;-68
2023/12/20 09:00:44;;;;;;;;;;;;;;;11.32;74.62;101315.63;7361337;19;19919;-68
2023/12/20 09:03:09;;;;;;;;;;;;;;;11.34;74.42;101303.38;7357298;19;19915;-68
2023/12/20 09:05:34;;;;;;;;;;;;;;;11.37;74.60;101313.81;7364911;19;20489;-68
2023/12/20 09:08:00;;;;;;;;;;;;;;;11.38;74.19;101294.59;7364049;19;19918;-68
2023/12/20 09:10:25;;;;;;;;;;;;;;;11.40;74.41;101298.03;7362221;19;20423;-68
2023/12/20 09:12:51;;;;;;;;;;;;;;;11.42;74.13;101291.06;7365550;19;19907;-67
2023/12/20 09:15:17;;;;;;;;;;;;;;;11.43;74.41;101292.78;7368925;19;20672;-67
2023/12/20 09:17:43;;;;;;;;;;;;;;;11.44;74.23;101291.88;7354231;19;19919;-68
2023/12/20 09:20:09;;;;;;;;;;;;;;;11.44;74.04;101268.34;7361437;19;19934;-68
2023/12/20 09:22:34;;;;;;;;;;;;;;;11.45;73.97;101272.69;7358181;19;19911;-67
2023/12/20 09:25:01;;;;;;;;;;;;;;;11.44;74.18;101284.91;7359457;19;20000;-68
2023/12/20 09:27:26;;;;;;;;;;;;;;;11.43;73.90;101277.09;7359576;19;20010;-67
2023/12/20 09:29:53;;;;;;;;;;;;;;;11.44;73.82;101268.34;7356808;19;20395;-67
2023/12/20 09:32:20;;;;;;;;;;;;;;;11.46;73.96;101255.25;7364349;19;19929;-68
2023/12/20 09:34:45;;;;;;;;;;;;;;;11.43;74.01;101254.41;7360172;19;19953;-68
2023/12/20 09:37:10;;;;;;;;;;;;;;;11.43;74.36;101246.56;7368565;19;19926;-67
2023/12/20 09:39:36;;;;;;;;;;;;;;;11.45;74.06;101246.53;7359225;19;20352;-67
2023/12/20 09:42:04;;;;;;;;;;;;;;;11.47;74.18;101236.91;7369152;19;19922;-68
2023/12/20 09:44:30;;;;;;;;;;;;;;;11.50;74.28;101231.63;7365956;19;19949;-68
2023/12/20 09:46:56;;;;;;;;;;;;;;;11.51;74.39;101222.03;7368522;19;19918;-68
2023/12/20 09:49:22;;;;;;;;;;;;;;;11.51;74.64;101215.06;7368580;19;19934;-67
2023/12/20 09:51:47;;;;;;;;;;;;;;;11.54;74.52;101221.97;7365692;19;20454;-68
2023/12/20 09:54:14;;;;;;;;;;;;;;;11.55;74.63;101219.31;7373307;19;20625;-67
2023/12/20 09:56:39;;;;;;;;;;;;;;;11.58;74.62;101214.03;7365480;19;19947;-67
2023/12/20 09:59:04;;;;;;;;;;;;;;;11.59;74.42;101205.28;7368400;19;20280;-67
2023/12/20 10:01:30;;;;;;;;;;;;;;;11.61;74.31;101193.06;7364656;19;20364;-68
2023/12/20 10:03:56;;;;;;;;;;;;;;;11.63;74.48;101178.19;7358898;19;20372;-67
2023/12/20 10:06:21;;;;;;;;;;;;;;;11.66;74.28;101186.00;7367034;19;20408;-67
2023/12/20 10:08:47;;;;;;;;;;;;;;;11.69;74.62;101175.44;7365561;19;20280;-67
2023/12/20 10:11:12;;;;;;;;;;;;;;;11.70;74.21;101179.78;7369670;19;19919;-67
2023/12/20 10:13:41;;;;;;;;;;;;;;;11.74;74.51;101177.97;7367047;19;19949;-68
2023/12/20 10:16:07;;;;;;;;;;;;;;;11.78;74.11;101210.19;7363115;19;19919;-68
2023/12/20 10:18:33;;;;;;;;;;;;;;;11.78;74.04;101210.19;7367379;19;20004;-67
2023/12/20 10:20:58;;;;;;;;;;;;;;;11.79;74.23;101202.31;7358815;19;19915;-68
2023/12/20 10:23:23;;;;;;;;;;;;;;;11.82;73.92;101206.66;7365839;19;19947;-68
2023/12/20 10:26:09;;;;;;;;;;;;;;;11.83;74.16;101200.53;7365189;19;20717;-68
2023/12/20 10:28:35;;;;;;;;;;;;;;;11.82;74.14;101206.66;7362769;19;19925;-68
2023/12/20 10:31:00;;;;;;;;;;;;;;;11.84;73.92;101189.16;7356035;19;19922;-68
2023/12/20 10:33:26;;;;;;;;;;;;;;;11.84;73.73;101186.53;7364840;19;19935;-67
2023/12/20 10:35:52;;;;;;;;;;;;;;;11.84;73.70;101215.31;7364015;19;20264;-68
2023/12/20 10:38:17;;;;;;;;;;;;;;;11.85;73.64;101201.34;7365105;19;19947;-68
2023/12/20 10:40:45;;;;;;;;;;;;;;;11.84;73.78;101212.72;7363461;19;19926;-67
2023/12/20 10:43:10;;;;;;;;;;;;;;;11.84;73.78;101215.31;7362113;19;20625;-68
2023/12/20 10:45:35;;;;;;;;;;;;;;;11.83;73.91;101218.84;7363922;19;20002;-68
2023/12/20 10:48:01;;;;;;;;;;;;;;;11.83;73.80;101229.31;7365779;19;19948;-67
2023/12/20 10:50:28;;;;;;;;;;;;;;;11.81;73.89;101210.09;7356586;19;20581;-68
2023/12/20 10:52:55;;;;;;;;;;;;;;;11.80;73.94;101218.84;7366075;19;19922;-67
2023/12/20 10:55:21;;;;;;;;;;;;;;;11.80;74.02;101226.72;7363471;19;19926;-67
2023/12/20 10:58:06;;;;;;;;;;;;;;;11.79;73.71;101230.22;7367564;19;23304;-67
2023/12/20 11:00:32;;;;;;;;;;;;;;;11.79;74.04;101222.38;7359675;19;20356;-68
2023/12/20 11:03:00;;;;;;;;;;;;;;;11.77;73.72;101230.25;7363145;19;19983;-67
2023/12/20 11:05:30;;;;;;;;;;;;;;;11.76;74.06;101228.53;7364616;19;19926;-67
2023/12/20 11:08:02;;;;;;;;;;;;;;;11.76;73.84;101219.81;7365807;19;19926;-68
2023/12/20 11:10:51;;;;;;;;;;;;;;;11.75;74.26;101195.41;7368322;19;19918;-67
2023/12/20 11:13:20;;;;;;;;;;;;;;;11.76;73.88;101204.09;7361807;19;19954;-68
2023/12/20 11:15:46;;;;;;;;;;;;;;;11.76;74.22;101202.38;7365756;19;19919;-68
2023/12/20 11:18:11;;;;;;;;;;;;;;;11.77;74.13;101196.25;7366779;19;19962;-68
2023/12/20 11:20:37;;;;;;;;;;;;;;;11.78;74.42;101197.97;7361004;19;19919;-68
2023/12/20 11:23:03;;;;;;;;;;;;;;;11.79;74.30;101188.34;7366815;19;19918;-67
2023/12/20 11:25:28;;;;;;;;;;;;;;;11.81;74.40;101178.72;7362225;19;20490;-68
2023/12/20 11:28:22;;;;;;;;;;;;;;;11.82;74.61;101176.13;7361979;19;19914;-68
2023/12/20 11:30:52;;;;;;;;;;;;;;;11.86;74.25;101169.03;7355823;19;20618;-67
2023/12/20 11:33:21;;;;;;;;;;;;;;;11.88;74.50;101175.97;7360544;19;19919;-68
2023/12/20 11:35:46;;;;;;;;;;;;;;;11.90;74.68;101166.34;7355747;19;19933;-67
2023/12/20 11:38:13;;;;;;;;;;;;;;;11.93;74.66;101157.56;7369181;19;20380;-67
2023/12/20 11:40:41;;;;;;;;;;;;;;;11.94;74.36;101148.81;7356161;19;20604;-67
2023/12/20 11:43:06;;;;;;;;;;;;;;;11.95;74.54;101146.16;7362566;19;20303;-68
2023/12/20 11:45:32;;;;;;;;;;;;;;;11.98;74.60;101150.50;7362908;19;19922;-68
2023/12/20 11:47:57;;;;;;;;;;;;;;;12.00;74.24;101156.53;7367961;19;19942;-67
2023/12/20 11:50:23;;;;;;;;;;;;;;;12.02;74.55;101161.75;7354327;19;19955;-68
2023/12/20 11:52:49;;;;;;;;;;;;;;;12.05;74.64;101156.44;7361855;19;20839;-68
2023/12/20 11:55:14;;;;;;;;;;;;;;;12.07;74.29;101165.16;7365190;19;19940;-68
2023/12/20 11:57:39;;;;;;;;;;;;;;;12.08;74.51;101152.00;7366862;19;19943;-68
2023/12/20 12:00:06;;;;;;;;;;;;;;;12.10;74.30;101139.75;7364096;19;19927;-67
2023/12/20 12:02:31;;;;;;;;;;;;;;;12.14;74.41;101127.44;7359732;19;19926;-67
2023/12/20 12:04:58;;;;;;;;;;;;;;;12.16;74.00;101130.88;7359470;19;20387;-68
2023/12/20 12:07:24;;;;;;;;;;;;;;;12.18;73.98;101116.88;7365173;19;19967;-68
2023/12/20 12:09:49;;;;;;;;;;;;;;;12.23;73.94;101115.91;7364789;19;20375;-68
2023/12/20 12:12:14;;;;;;;;;;;;;;;12.26;73.93;101118.44;7365511;19;20242;-67
2023/12/20 12:14:40;;;;;;;;;;;;;;;12.28;73.95;101114.06;7362952;19;20394;-67
2023/12/20 12:17:12;;;;;;;;;;;;;;;12.30;73.79;101120.97;7363930;19;19919;-68
2023/12/20 12:19:38;;;;;;;;;;;;;;;12.33;74.02;101131.38;7332408;19;19982;-68
2023/12/20 12:22:14;;;;;;;;;;;;;;;12.35;73.94;101115.63;7342036;19;20010;-67
2023/12/20 12:24:39;;;;;;;;;;;;;;;12.38;73.61;101112.94;7361468;19;19926;-68
2023/12/20 12:27:08;;;;;;;;;;;;;;;12.40;73.76;101129.47;7360022;19;19919;-68
2023/12/20 12:29:34;;;;;;;;;;;;;;;12.41;73.61;101132.03;7363129;19;19999;-68
2023/12/20 12:31:59;;;;;;;;;;;;;;;12.44;73.65;101131.13;7366340;19;19982;-68